Create Custom Reports and Graphics: Custom Report

Latest Observations

MWA Stations

15 Minute Data | America/Los_Angeles
as of 5/10/26 1:59 PM PDT
Station Date Time Temp (°F) RH (%) Dew Pt (°F) Wind Dir (°) Wind Spd (mph) Wind Gust (mph) Solar Rad (W/m2) Pressure (mb) Daily Min Temp (°F) Daily Max Temp (°F) Daily Max Wind (mph) Daily Rain (In) Yest MinT (°F) Yest MaxT (°F) Yest MaxGst (mph) Yest Precip (In) MinBV Day (V)
MWA Office 5/10/26 1345 94.7   2.3 12   2 34.4   5.2 W | 264 2.1   1.7 8.3   2.4 955   32 1,007.2   1.6 51.9   3.1 96.1   3.3 11.0   3.3 0.00 48.8 95.4 21.5 0.00 12.4   0.0
MWA OPS 5/10/26 1345 92.9   2.5 13   1 34.7   0.3 NW | 322 2.5   7.7 8.6   9.6 994   33 1,006.8   1.0 52.6   0.2 93.7   2.5 9.9   8.3 0.00 52.9 91.2 22.1 0.00 12.8   0.0
LV-PS 5/10/26 1400 95.4   4.8 11   0 32.1   4.6 ENE | 71 11.1   7.2 21.3   10.7 927   97 1,005.5   0.0 56.6   3.7 97.1   5.9 21.3   3.7 0.00 60.2 94.5 21.0 0.00 12.8   0.0
JV-PS 5/10/26 1345 94.8   3.9 11   0 31.0   2.8 E | 89 8.3   4.5 15.6   6.8 977   3 1,006.4   0.9 56.6   4.8 96.4   4.7 24.6   6.4 0.00 61.5 94.6 19.3 0.00 12.9   0.0
BDVWA 5/10/26 1345 90.5   1.4 13   0 32.5   2.0 ESE | 104 5.2   1.1 17.8   8.1 1,005   3 1,006.6   1.7 68.5   4.2 91.7   1.3 17.8   5.1 0.00 64.3 91.3 21.0 0.00 12.8   0.0
Newberry Springs 5/10/26 1345 98.8   4.2 12   2 37.1   0.6 ENE | 59 7.1   0.9 12.7   0.0 1,011   11 1,007.2   1.1 68.3   1.9 99.6   4.0 23.0   1.3 0.00 66.4 99.7 30.0 0.00 12.9   0.0
Pinon Hills 5/10/26 1345 86.4   3.8 15   2 33.0   0.5 ESE | 106 8.7   4.3 19.1   9.6 981   10 1,005.8   0.3 56.9   7.2 87.2   3.7 19.1   7.2 0.00 49.7 85.4 14.2 0.00 12.8   0.0
Helendale 5/10/26 1345 95.1   4.1 18   1 44.7   2.0 NNE | 33 3.2   0.4 9.4   1.5 951   20 1,006.8   0.7 54.2   1.9 96.1   4.3 12.9   3.1 0.00 52.3 96.6 21.5 0.00 12.8   0.0
Lenwood 5/10/26 1345 98.0   5.1 11   3 34.4   2.4 ENE | 74 5.6   0.4 12.9   2.0 997   17 1,006.5   0.5 53.1   3.4 99.5   5.0 20.4   4.6 0.00 56.5 97.8 22.1 0.00 12.4   0.0
Oak Hills 5/10/26 1345 88.2   8.2 21   11 43.3   4.0 SSW | 198 5.6   0.8 13.2   0.2 994   15 1,006.7   0.5 55.2   1.1 89.0   7.4 16.0   2.0 0.00 54.2 81.6 21.9 0.00 13.0   0.0
Pipes Wash Canyon 5/10/26 1345 88.7   3.4 12   1 29.6   4.7 ESE | 102 5.6   1.3 16.9   6.4 1,002   16 1,005.5   0.9 63.8   2.1 89.6   3.0 17.5   0.9 0.00 61.7 86.9 16.7 0.00 12.9   0.0
Max     98.8 21 44.7 - 11.1 21.3 1,011 1,007.2 68.5 99.6 24.6 0.00 66.4 99.7 30.0 0.00 13.0
Avg     93.0 13 35.2 - 5.9 14.1 981 1,006.4 - - - - - - - - -
Min     86.4 11 29.6 - 2.1 8.3 927 1,005.5 51.9 87.2 9.9 0.00 48.8 81.6 14.2 0.00 12.4

Latest Observations

Map

15 Minute Data

Rainfall & ETo

MWA Stations

15 Minute Data | America/Los_Angeles
as of 5/10/26 1:59 PM PDT
Station Date Time Latest Rain (In) Daily Rain (In) Yest Precip (In) Month Precip (In) Season Precip (In) Daily ETo (in) Yest ETo (In) 7 Day ETo (in)
MWA Office 5/10/26 1345 0.00 0.00 0.00 0.00 4.30 0.118 0.29 1.65
MWA OPS 5/10/26 1345 0.00 0.00 0.00 0.00 9.32 0.128 0.31 1.67
LV-PS 5/10/26 1400 0.00 0.00 0.00 0.00 3.63 0.142 0.32 1.90
JV-PS 5/10/26 1345 0.00 0.00 0.00 0.02 6.39 0.143 0.32 1.93
BDVWA 5/10/26 1345 0.00 0.00 0.00 0.03 6.39 0.153 0.32 1.81
Newberry Springs 5/10/26 1345 0.00 0.00 0.00 0.00 2.70 0.176 0.38 2.20
Pinon Hills 5/10/26 1345 0.00 0.00 0.00 0.00 15.51 0.139 0.26 1.53
Helendale 5/10/26 1345 0.00 0.00 0.00 0.00 5.55 0.130 0.30 1.88
Lenwood 5/10/26 1345 0.00 0.00 0.00 0.00 4.24 0.127 0.31 1.93
Oak Hills 5/10/26 1345 0.00 0.00 0.00 0.00 14.72 0.137 0.28 1.41
Pipes Wash Canyon 5/10/26 1345 0.00 0.00 0.00 0.00 13.92 0.156 0.27 1.57
Max     0.00 0.00 0.00 0.03 15.51 0.176 0.38 2.20
Avg     0.00 - - - - - - -
Min     0.00 0.00 0.00 0.00 2.70 0.118 0.26 1.41